MMLP/LAP METAR and TAF weather

Enter ICAO airport designator
Station Type Date Time Source
MMLP METAR 2019/04/18 05:44 UTC NOAA

MMLP 180544Z 02004KT 10SM SCT200 19/12 A3001 RMK SLP169 52013 9// 8/008


Station Type Date Time Source
MMLP Decoded METAR 2019/04/18 05:44 UTC NOAA

La Paz International Airport, Mexico (MMLP) 24-04N 110-22W
Apr 18, 2019 - 01:44 AM EDT / 2019.04.18 0544 UTC
Wind: from the NNE (020 degrees) at 5 MPH (4 KT):0
Visibility: 10 mile(s):0
Sky conditions: partly cloudy
Temperature: 66 F (19 C)
Dew Point: 53 F (12 C)
Relative Humidity: 63%
Pressure (altimeter): 30.01 in. Hg (1016 hPa)
Pressure tendency: 0.04 inches (1.3 hPa) higher than three hours ago
ob: MMLP 180544Z 02004KT 10SM SCT200 19/12 A3001 RMK SLP169 52013 9// 8/008
cycle: 5

Station Type Date Time Source
MMLP TAF 2019/04/18 06:20 UTC NOAA

TAF MMLP 180416Z 1806/1906 18005KT P6SM SCT200
FM181600 36010KT P6SM SCT250
FM190000 18005KT P6SM OVC250

Example: see airport list